createdAt,value
2023-02-20T00:00:29.064Z,32.25
2023-02-20T00:03:34.796Z,34.28
2023-02-20T00:06:39.217Z,35.22
2023-02-20T00:09:43.345Z,34.25
2023-02-20T00:12:47.238Z,33.20
2023-02-20T00:16:01.426Z,43.47
2023-02-20T00:19:06.309Z,38.42
2023-02-20T00:22:15.407Z,35.83
2023-02-20T00:25:21.298Z,37.95
2023-02-20T00:28:26.364Z,35.88
2023-02-20T00:31:31.218Z,36.60
2023-02-20T00:34:40.494Z,34.95
2023-02-20T00:37:48.414Z,37.55
2023-02-20T00:40:52.941Z,30.57
2023-02-20T00:44:06.847Z,44.70
2023-02-20T00:47:11.020Z,38.03
2023-02-20T00:50:28.946Z,37.95
2023-02-20T00:53:43.433Z,44.45
2023-02-20T00:56:57.495Z,40.03
2023-02-20T01:00:01.728Z,40.05
2023-02-20T01:03:08.013Z,42.13
2023-02-20T01:06:12.497Z,61.25
2023-02-20T01:09:28.546Z,44.65
2023-02-20T01:12:38.108Z,45.60
2023-02-20T01:15:43.372Z,48.20
2023-02-20T01:18:57.467Z,52.42
2023-02-20T01:22:03.346Z,51.75
2023-02-20T01:25:17.859Z,53.75
2023-02-20T01:28:22.533Z,59.38
2023-02-20T01:31:26.551Z,56.58
2023-02-20T01:34:31.305Z,51.13
2023-02-20T01:37:36.894Z,50.65
2023-02-20T01:40:49.444Z,55.38
2023-02-20T01:43:53.660Z,57.30
2023-02-20T01:46:59.834Z,57.60
2023-02-20T01:50:10.857Z,60.83
2023-02-20T01:53:19.166Z,56.63
2023-02-20T01:56:23.279Z,66.82
2023-02-20T01:59:44.648Z,52.05
2023-02-20T02:03:09.229Z,63.05
2023-02-20T02:06:16.437Z,53.92
2023-02-20T02:09:30.505Z,52.47
2023-02-20T02:12:48.386Z,51.83
2023-02-20T02:15:54.421Z,45.13
2023-02-20T02:19:05.342Z,56.00
2023-02-20T02:22:37.313Z,61.45
2023-02-20T02:26:00.365Z,52.58
2023-02-20T02:29:38.304Z,62.88
2023-02-20T02:33:07.124Z,62.03
2023-02-20T02:36:22.231Z,57.80
2023-02-20T02:39:49.216Z,58.95
2023-02-20T02:43:19.030Z,55.90
2023-02-20T02:46:37.169Z,64.47
2023-02-20T02:54:17.037Z,78.47
2023-02-20T02:57:28.778Z,82.10
2023-02-20T03:00:44.531Z,107.70
2023-02-20T03:03:57.125Z,117.15
2023-02-20T03:07:11.536Z,114.70
2023-02-20T03:10:21.082Z,106.93
2023-02-20T03:14:02.090Z,101.68
2023-02-20T03:17:27.451Z,235.23
2023-02-20T03:20:33.595Z,110.32
2023-02-20T03:23:42.308Z,123.82
2023-02-20T03:26:49.928Z,119.20
2023-02-20T03:29:58.767Z,170.10
2023-02-20T03:33:40.013Z,130.43
2023-02-20T03:41:12.258Z,148.88
2023-02-20T03:44:17.985Z,95.05
2023-02-20T03:47:37.463Z,111.60
2023-02-20T03:51:06.158Z,86.68
2023-02-20T03:54:18.338Z,76.15
2023-02-20T03:57:35.238Z,70.93
2023-02-20T04:00:44.911Z,63.53
2023-02-20T04:03:55.125Z,52.22
2023-02-20T04:07:01.211Z,44.67
2023-02-20T04:10:22.776Z,42.70
2023-02-20T04:13:39.417Z,36.03
2023-02-20T04:16:58.319Z,40.33
2023-02-20T04:20:04.071Z,59.50
2023-02-20T04:23:19.498Z,175.25
2023-02-20T04:26:29.110Z,128.20
2023-02-20T04:29:33.423Z,157.70
2023-02-20T04:32:37.245Z,131.37
2023-02-20T04:35:43.905Z,87.18
2023-02-20T04:38:49.641Z,82.93
2023-02-20T04:42:08.205Z,102.07
2023-02-20T04:45:20.459Z,117.10
2023-02-20T04:48:24.340Z,105.35
2023-02-20T04:51:33.373Z,89.85
2023-02-20T04:54:46.791Z,104.65
2023-02-20T04:57:58.823Z,73.53
2023-02-20T05:01:17.299Z,158.27
2023-02-20T05:04:22.544Z,73.60
2023-02-20T05:07:27.660Z,104.32
2023-02-20T05:10:41.739Z,51.63
2023-02-20T05:13:55.889Z,53.90
2023-02-20T05:17:00.192Z,59.13
2023-02-20T05:20:05.695Z,58.40
2023-02-20T05:26:21.722Z,77.25
2023-02-20T05:29:25.447Z,65.88
2023-02-20T05:32:31.264Z,45.08
2023-02-20T05:38:48.669Z,29.05
2023-02-20T05:41:53.851Z,32.88
2023-02-20T05:44:57.855Z,33.15
2023-02-20T05:48:02.063Z,28.48
2023-02-20T05:51:06.467Z,31.85
2023-02-20T05:54:21.405Z,37.38
2023-02-20T05:57:26.575Z,33.08
2023-02-20T06:00:40.592Z,29.92
2023-02-20T06:03:56.000Z,35.33
2023-02-20T06:06:59.791Z,39.95
2023-02-20T06:10:06.866Z,29.17
2023-02-20T06:13:20.917Z,32.67
2023-02-20T06:16:28.527Z,38.00
2023-02-20T06:19:32.786Z,35.88
2023-02-20T06:22:36.463Z,30.75
2023-02-20T06:25:50.088Z,38.40
2023-02-20T06:28:54.976Z,32.70
2023-02-20T06:32:01.687Z,31.38
2023-02-20T06:35:19.131Z,29.37
2023-02-20T06:38:25.723Z,32.28
2023-02-20T06:41:29.531Z,30.92
2023-02-20T06:44:38.975Z,30.35
2023-02-20T06:47:46.043Z,32.67
2023-02-20T06:50:52.362Z,34.80
2023-02-20T06:54:08.516Z,36.30
2023-02-20T06:57:13.649Z,36.28
2023-02-20T07:00:28.422Z,38.70
2023-02-20T07:03:32.435Z,32.28
2023-02-20T07:06:38.222Z,30.58
2023-02-20T07:09:44.714Z,30.17
2023-02-20T07:12:49.223Z,39.28
2023-02-20T07:15:53.981Z,32.60
2023-02-20T07:18:58.493Z,31.98
2023-02-20T07:22:02.616Z,36.72
2023-02-20T07:25:07.814Z,36.40
2023-02-20T07:28:12.652Z,38.03
2023-02-20T07:31:22.763Z,35.33
2023-02-20T07:34:28.113Z,35.33
2023-02-20T07:37:39.700Z,52.53
2023-02-20T07:40:43.847Z,36.03
2023-02-20T07:43:47.870Z,33.00
2023-02-20T07:46:51.718Z,27.70
2023-02-20T07:49:56.194Z,28.75
2023-02-20T07:53:00.001Z,27.30
2023-02-20T07:56:06.767Z,29.45
2023-02-20T07:59:23.047Z,27.08
2023-02-20T08:02:27.190Z,35.25
2023-02-20T08:05:40.217Z,27.83
2023-02-20T08:08:52.379Z,26.88
2023-02-20T08:11:56.855Z,32.38
2023-02-20T08:15:10.680Z,29.35
2023-02-20T08:18:23.544Z,25.60
2023-02-20T08:21:29.319Z,26.88
2023-02-20T08:24:37.475Z,36.94
2023-02-20T08:27:50.303Z,34.90
2023-02-20T08:30:54.101Z,31.25
2023-02-20T08:34:00.825Z,30.60
2023-02-20T08:37:04.955Z,33.92
2023-02-20T08:40:19.814Z,27.02
2023-02-20T08:43:27.511Z,27.77
2023-02-20T08:46:49.517Z,28.70
2023-02-20T08:50:04.631Z,26.88
2023-02-20T08:53:09.312Z,32.35
2023-02-20T08:56:13.902Z,25.50
2023-02-20T08:59:18.852Z,26.10
2023-02-20T09:02:29.882Z,33.08
2023-02-20T09:05:35.784Z,29.35
2023-02-20T09:08:40.466Z,28.50
2023-02-20T09:11:54.519Z,22.45
2023-02-20T09:15:04.001Z,25.29
2023-02-20T09:18:10.517Z,27.20
2023-02-20T09:21:17.772Z,22.98
2023-02-20T09:24:21.558Z,26.45
2023-02-20T09:27:31.039Z,24.98
2023-02-20T09:30:45.385Z,25.52
2023-02-20T09:34:00.724Z,26.52
2023-02-20T09:37:09.410Z,26.25
2023-02-20T09:43:34.884Z,31.27
2023-02-20T09:46:39.968Z,21.48
2023-02-20T09:49:44.413Z,25.50
2023-02-20T09:53:00.678Z,26.00
2023-02-20T09:56:07.055Z,22.20
2023-02-20T09:59:30.233Z,22.17
2023-02-20T10:05:58.133Z,25.25
2023-02-20T10:09:03.188Z,25.42
2023-02-20T10:12:39.054Z,28.92
2023-02-20T10:16:13.759Z,21.43
2023-02-20T10:19:45.462Z,27.05
2023-02-20T10:23:13.603Z,28.52
2023-02-20T10:26:26.764Z,26.63
2023-02-20T10:29:41.644Z,22.48
2023-02-20T10:33:00.494Z,23.50
2023-02-20T10:36:14.830Z,23.88
2023-02-20T10:39:31.113Z,19.70
2023-02-20T10:42:41.454Z,23.90
2023-02-20T10:45:55.941Z,23.84
2023-02-20T10:49:02.809Z,21.23
2023-02-20T10:52:33.814Z,26.70
2023-02-20T10:55:50.284Z,24.33
2023-02-20T11:02:58.517Z,22.55
2023-02-20T11:06:22.589Z,23.47
2023-02-20T11:09:36.833Z,22.83
2023-02-20T11:13:00.729Z,31.08
2023-02-20T11:16:04.741Z,32.13
2023-02-20T11:19:16.212Z,23.90
2023-02-20T11:22:40.289Z,21.98
2023-02-20T11:25:45.361Z,25.25
2023-02-20T11:29:11.542Z,19.75
2023-02-20T11:32:29.209Z,23.90
2023-02-20T11:35:46.140Z,21.02
2023-02-20T11:39:01.851Z,24.77
2023-02-20T11:42:20.210Z,26.30
2023-02-20T11:45:25.821Z,22.55
2023-02-20T11:48:34.362Z,26.15
2023-02-20T11:51:50.650Z,33.05
2023-02-20T11:55:29.915Z,28.27
2023-02-20T11:58:46.232Z,27.77
2023-02-20T12:02:00.513Z,25.55
2023-02-20T12:05:05.197Z,28.25
2023-02-20T12:08:46.634Z,31.00
2023-02-20T12:11:54.590Z,32.03
2023-02-20T12:14:59.381Z,33.08
2023-02-20T12:18:14.360Z,24.48
2023-02-20T12:25:41.442Z,29.08
2023-02-20T12:29:20.419Z,27.45
2023-02-20T12:33:01.764Z,22.13
2023-02-20T12:36:12.188Z,24.90
2023-02-20T12:39:32.705Z,66.03
2023-02-20T12:43:09.743Z,102.47
2023-02-20T12:46:32.047Z,176.68
2023-02-20T12:49:59.201Z,285.13
2023-02-20T12:53:26.325Z,68.22
2023-02-20T12:56:50.084Z,49.35
2023-02-20T13:00:01.227Z,26.00
2023-02-20T13:03:22.260Z,27.65
2023-02-20T13:06:47.392Z,31.23
2023-02-20T13:10:12.932Z,31.40
2023-02-20T13:13:17.954Z,29.20
2023-02-20T13:16:35.778Z,31.45
2023-02-20T13:19:46.327Z,45.20
2023-02-20T13:23:06.680Z,39.70
2023-02-20T13:26:35.084Z,31.17
2023-02-20T13:29:57.589Z,29.35
2023-02-20T13:33:18.553Z,26.63
2023-02-20T13:36:35.829Z,38.40
2023-02-20T13:39:43.188Z,37.17
2023-02-20T13:43:29.769Z,34.75
2023-02-20T13:46:59.879Z,29.38
2023-02-20T13:50:04.659Z,39.25
2023-02-20T13:53:09.352Z,36.78
2023-02-20T13:56:17.597Z,37.42
2023-02-20T13:59:22.599Z,35.95
2023-02-20T14:02:31.486Z,95.30
2023-02-20T14:05:35.797Z,53.83
2023-02-20T14:08:45.698Z,33.92
2023-02-20T14:11:56.426Z,52.00
2023-02-20T14:15:06.153Z,125.15
2023-02-20T14:18:36.842Z,80.50
2023-02-20T14:21:49.269Z,53.17
2023-02-20T14:25:08.784Z,58.08
2023-02-20T14:28:16.203Z,37.60
2023-02-20T14:31:33.761Z,35.63
2023-02-20T14:35:02.172Z,45.38
2023-02-20T14:38:31.318Z,44.68
2023-02-20T14:42:04.600Z,41.03
2023-02-20T14:45:15.688Z,34.90
2023-02-20T14:48:29.522Z,46.03
2023-02-20T14:51:33.778Z,29.50
2023-02-20T14:54:41.260Z,30.90
2023-02-20T14:57:49.050Z,25.25
2023-02-20T15:00:54.068Z,21.02
2023-02-20T15:04:03.700Z,18.20
2023-02-20T15:07:13.222Z,23.95
2023-02-20T15:10:34.968Z,23.02
2023-02-20T15:13:48.980Z,22.00
2023-02-20T15:17:08.782Z,18.80
2023-02-20T15:20:36.026Z,19.43
2023-02-20T15:23:45.621Z,18.40
2023-02-20T15:27:24.065Z,24.77
2023-02-20T15:30:33.462Z,23.80
2023-02-20T15:33:47.967Z,28.95
2023-02-20T15:36:52.251Z,24.17
2023-02-20T15:39:56.219Z,22.75
2023-02-20T15:43:24.013Z,18.80
2023-02-20T15:46:40.882Z,20.20
2023-02-20T15:49:44.900Z,20.20
2023-02-20T15:52:49.761Z,20.10
2023-02-20T15:56:02.472Z,25.08
2023-02-20T15:59:12.616Z,19.67
2023-02-20T16:02:21.900Z,21.83
2023-02-20T16:05:26.099Z,24.50
2023-02-20T16:08:31.556Z,23.52
2023-02-20T16:11:44.587Z,21.80
2023-02-20T16:14:54.390Z,26.05
2023-02-20T16:18:00.023Z,21.55
2023-02-20T16:21:13.308Z,21.05
2023-02-20T16:27:32.209Z,18.25
2023-02-20T16:30:46.160Z,17.95
2023-02-20T16:36:55.037Z,21.00
2023-02-20T16:39:59.294Z,17.35
2023-02-20T16:43:03.572Z,17.08
2023-02-20T16:46:07.653Z,20.63
2023-02-20T16:49:16.188Z,20.25
2023-02-20T16:52:30.315Z,18.17
2023-02-20T16:55:47.740Z,19.50
2023-02-20T16:58:52.303Z,18.52
2023-02-20T17:01:56.643Z,21.13
2023-02-20T17:05:01.921Z,16.20
2023-02-20T17:08:06.728Z,17.42
2023-02-20T17:11:13.622Z,17.17
2023-02-20T17:14:17.820Z,16.90
2023-02-20T17:17:23.132Z,16.23
2023-02-20T17:20:32.451Z,16.58
2023-02-20T17:23:36.331Z,15.73
2023-02-20T17:26:40.016Z,19.85
2023-02-20T17:29:50.141Z,20.17
2023-02-20T17:33:04.400Z,18.48
2023-02-20T17:36:08.702Z,15.20
2023-02-20T17:39:16.613Z,19.60
2023-02-20T17:42:20.707Z,17.90
2023-02-20T17:45:29.531Z,19.60
2023-02-20T17:48:34.873Z,20.85
2023-02-20T17:51:40.428Z,22.75
2023-02-20T17:54:57.133Z,16.98
2023-02-20T17:58:11.686Z,21.88
2023-02-20T18:01:15.760Z,22.67
2023-02-20T18:04:21.259Z,21.60
2023-02-20T18:07:25.367Z,20.80
2023-02-20T18:10:34.568Z,22.23
2023-02-20T18:13:38.617Z,21.63
2023-02-20T18:16:48.874Z,16.73
2023-02-20T18:19:53.415Z,19.48
2023-02-20T18:22:58.104Z,19.73
2023-02-20T18:26:02.750Z,18.98
2023-02-20T18:29:11.262Z,18.38
2023-02-20T18:32:16.786Z,18.85
2023-02-20T18:35:30.786Z,19.60
2023-02-20T18:38:35.261Z,22.30
2023-02-20T18:41:38.927Z,20.42
2023-02-20T18:44:47.681Z,16.27
2023-02-20T18:47:53.734Z,21.83
2023-02-20T18:50:57.739Z,16.23
2023-02-20T18:54:02.870Z,19.08
2023-02-20T18:57:12.089Z,22.88
2023-02-20T19:00:26.782Z,19.17
2023-02-20T19:03:32.116Z,21.08
2023-02-20T19:06:40.807Z,23.00
2023-02-20T19:09:54.585Z,21.15
2023-02-20T19:12:59.855Z,22.42
2023-02-20T19:16:04.085Z,19.33
2023-02-20T19:19:23.486Z,18.05
2023-02-20T19:22:30.707Z,17.48
2023-02-20T19:25:44.342Z,19.52
2023-02-20T19:28:53.236Z,21.65
2023-02-20T19:32:08.809Z,20.40
2023-02-20T19:35:13.548Z,26.17
2023-02-20T19:38:17.743Z,21.00
2023-02-20T19:41:23.078Z,19.73
2023-02-20T19:44:26.753Z,22.73
2023-02-20T19:47:40.968Z,18.95
2023-02-20T19:50:45.412Z,19.73
2023-02-20T19:54:01.469Z,19.25
2023-02-20T19:57:05.749Z,20.23
2023-02-20T20:00:20.336Z,21.27
2023-02-20T20:03:29.386Z,22.00
2023-02-20T20:06:45.424Z,22.27
2023-02-20T20:09:49.963Z,19.25
2023-02-20T20:12:54.230Z,21.48
2023-02-20T20:15:58.936Z,24.65
2023-02-20T20:19:10.930Z,22.70
2023-02-20T20:22:15.741Z,25.08
2023-02-20T20:25:21.416Z,26.48
2023-02-20T20:28:25.621Z,25.08
2023-02-20T20:31:39.440Z,23.76
2023-02-20T20:34:51.040Z,23.60
2023-02-20T20:37:56.712Z,23.52
2023-02-20T20:41:00.313Z,23.90
2023-02-20T20:44:05.104Z,21.45
2023-02-20T20:47:09.280Z,23.90
2023-02-20T20:50:24.925Z,22.38
2023-02-20T20:53:28.820Z,25.20
2023-02-20T20:56:32.615Z,23.95
2023-02-20T20:59:37.916Z,24.40
2023-02-20T21:02:42.493Z,29.77
2023-02-20T21:05:46.573Z,26.30
2023-02-20T21:08:50.209Z,23.25
2023-02-20T21:11:54.835Z,28.28
2023-02-20T21:14:59.082Z,29.52
2023-02-20T21:18:04.335Z,28.30
2023-02-20T21:21:10.994Z,30.75
2023-02-20T21:24:15.454Z,27.98
2023-02-20T21:27:23.746Z,27.63
2023-02-20T21:30:28.105Z,28.90
2023-02-20T21:33:42.297Z,31.08
2023-02-20T21:36:48.091Z,28.50
2023-02-20T21:39:54.075Z,29.63
2023-02-20T21:43:16.961Z,34.72
2023-02-20T21:46:21.839Z,33.33
2023-02-20T21:49:37.611Z,34.28
2023-02-20T21:52:41.510Z,30.65
2023-02-20T21:55:46.053Z,32.58
2023-02-20T21:59:04.405Z,32.05
2023-02-20T22:02:19.851Z,28.02
2023-02-20T22:05:24.684Z,28.70
2023-02-20T22:08:49.233Z,28.67
2023-02-20T22:12:12.357Z,30.98
2023-02-20T22:15:34.729Z,29.73
2023-02-20T22:18:57.318Z,24.80
2023-02-20T22:22:21.536Z,29.58
2023-02-20T22:25:55.018Z,26.83
2023-02-20T22:29:17.746Z,26.45
2023-02-20T22:32:41.201Z,27.52
2023-02-20T22:36:08.547Z,29.90
2023-02-20T22:39:38.336Z,28.87
2023-02-20T22:43:01.217Z,28.58
2023-02-20T22:46:28.982Z,29.17
2023-02-20T22:49:53.309Z,34.40
2023-02-20T22:53:26.686Z,39.08
2023-02-20T22:56:49.540Z,27.27
2023-02-20T23:00:12.485Z,32.13
2023-02-20T23:03:40.921Z,30.67
2023-02-20T23:07:03.425Z,30.20
2023-02-20T23:10:30.627Z,34.83
2023-02-20T23:13:58.288Z,39.28
2023-02-20T23:17:37.982Z,36.35
2023-02-20T23:21:01.623Z,33.65
2023-02-20T23:24:24.378Z,37.97
2023-02-20T23:27:47.591Z,35.00
2023-02-20T23:31:09.899Z,33.92
2023-02-20T23:34:32.988Z,32.13
2023-02-20T23:37:55.653Z,28.63
2023-02-20T23:41:18.524Z,30.98
2023-02-20T23:44:43.847Z,34.95
2023-02-20T23:48:07.790Z,41.42
2023-02-20T23:51:32.554Z,31.40
2023-02-20T23:54:55.120Z,32.97
2023-02-20T23:58:22.711Z,29.40
